Stations météo

Publicité
Salsburgh, Grande-Bretagne (99024): Température de l'air & dewpoint: 13.10.2018 20:00:00 - 19.10.2018 20:00:00 (BST)Salsburgh, Grande-Bretagne (99024): Vitesse du vent & gusts: 13.10.2018 20:00:00 - 19.10.2018 20:00:00 (BST)Salsburgh, Grande-Bretagne (99024): Direction du vent: 13.10.2018 20:00:00 - 19.10.2018 20:00:00 (BST)Salsburgh, Grande-Bretagne (99024): Quantités de précipitations: 13.10.2018 20:00:00 - 19.10.2018 20:00:00 (BST)
Date & Time tt [°C] td [°C] ff [km/h] ff [knt] fx [km/h] fx [knt] dd rr [mm]
19.10.2018 20:00:00 6,6 6,1 11 6 - - S 0,0
19.10.2018 19:00:00 7,7 6,6 9 5 - - SSW 0,0
19.10.2018 18:00:00 8,2 6,1 16 9 - - W 0,0
19.10.2018 17:00:00 9,8 8,8 22 12 - - WSW 0,0
19.10.2018 16:00:00 9,4 9,4 26 14 - - WSW 0,0
19.10.2018 15:00:00 9,2 9,1 29 16 46 25 WSW 0,0
19.10.2018 14:00:00 9,0 8,8 34 18 - - SW 0,2
19.10.2018 13:00:00 8,6 8,3 26 14 - - SW 0,2
19.10.2018 12:00:00 8,6 8,0 26 14 - - SSW 0,2
19.10.2018 11:00:00 8,6 6,6 28 15 - - SSW 0,0
19.10.2018 10:00:00 7,8 5,7 29 16 - - SSW 0,0
19.10.2018 09:00:00 6,4 4,9 26 14 - - S 0,0
19.10.2018 08:00:00 5,7 4,6 26 14 - - S 0,0
19.10.2018 07:00:00 5,5 3,9 26 14 - - S 0,0
19.10.2018 06:00:00 5,6 3,7 24 13 - - S 0,0
19.10.2018 05:00:00 5,7 3,9 26 14 - - S 0,0
19.10.2018 04:00:00 5,5 4,1 21 11 - - S 0,0
19.10.2018 03:00:00 5,0 3,6 22 12 - - S 0,0
19.10.2018 02:00:00 5,1 3,4 18 10 - - S 0,0
19.10.2018 01:00:00 5,1 3,5 16 9 - - S 0,0
19.10.2018 00:00:00 5,1 3,2 21 11 - - S 0,0
18.10.2018 23:00:00 4,8 3,0 16 9 - - S 0,0
18.10.2018 22:00:00 5,3 4,1 16 9 - - S 0,0
18.10.2018 21:00:00 6,3 4,4 15 8 - - S 0,0
18.10.2018 20:00:00 7,7 5,0 11 6 - - S 0,0
18.10.2018 19:00:00 8,0 4,5 9 5 - - S 0,0
18.10.2018 18:00:00 8,3 4,8 8 4 - - SSW 0,0
18.10.2018 17:00:00 9,5 3,8 15 8 - - SW 0,0
18.10.2018 16:00:00 9,6 4,8 11 6 - - SSW 0,0
18.10.2018 15:00:00 9,5 3,5 15 8 - - SSW 0,0
18.10.2018 14:00:00 9,3 3,8 11 6 - - WSW 0,0
18.10.2018 13:00:00 9,6 4,2 11 6 - - WSW 0,0
18.10.2018 12:00:00 9,3 7,5 8 4 - - SW 0,0
18.10.2018 11:00:00 7,9 6,5 5 3 - - SW 0,0
18.10.2018 10:00:00 6,2 6,2 9 5 - - SSE 0,0
18.10.2018 09:00:00 5,3 5,3 5 3 - - SSW 0,0
18.10.2018 08:00:00 4,7 4,7 8 4 - - SSE 0,0
18.10.2018 07:00:00 4,5 4,5 9 5 - - SSE 0,0
18.10.2018 06:00:00 4,6 4,5 4 2 - - S 0,0
18.10.2018 05:00:00 4,2 4,1 5 3 - - S 0,0
18.10.2018 04:00:00 3,8 3,5 5 3 - - SSE 0,0
18.10.2018 03:00:00 4,3 3,9 8 4 - - S 0,0
18.10.2018 02:00:00 4,6 4,0 8 4 - - SW 0,0
18.10.2018 01:00:00 4,8 4,6 8 4 - - S 0,0
18.10.2018 00:00:00 4,6 3,9 5 3 - - SSW 0,0
17.10.2018 23:00:00 4,4 3,7 11 6 - - SW 0,0
17.10.2018 22:00:00 4,7 4,0 13 7 - - WSW 0,0
17.10.2018 21:00:00 4,9 3,8 8 4 - - SW 0,0
17.10.2018 20:00:00 5,4 3,4 11 6 - - SW 0,0
17.10.2018 19:00:00 6,5 3,6 18 10 - - W 0,0
17.10.2018 18:00:00 8,1 3,6 13 7 - - W 0,0
17.10.2018 17:00:00 9,3 3,2 24 13 - - W 0,0
17.10.2018 16:00:00 9,9 3,6 22 12 - - W 0,0
17.10.2018 15:00:00 10,7 3,3 28 15 - - W 0,0
17.10.2018 14:00:00 9,9 4,9 21 11 - - WNW 0,0
17.10.2018 13:00:00 10,8 6,1 22 12 - - W 0,0
17.10.2018 12:00:00 9,9 7,0 34 18 48 26 W 0,0
17.10.2018 11:00:00 8,8 8,3 24 13 - - W 0,0
17.10.2018 10:00:00 9,0 8,9 26 14 - - WSW 0,0
17.10.2018 09:00:00 7,9 7,9 24 13 - - SSW 0,0
17.10.2018 08:00:00 7,4 7,4 22 12 - - SSW 0,0
17.10.2018 07:00:00 7,3 7,3 21 11 - - SSW 0,0
17.10.2018 06:00:00 7,1 6,8 16 9 - - SSW 0,2
17.10.2018 05:00:00 8,2 8,1 18 10 - - SW 0,0
17.10.2018 04:00:00 9,2 9,1 21 11 - - WSW 0,0
17.10.2018 03:00:00 9,5 9,0 22 12 - - SW 0,0
17.10.2018 02:00:00 8,9 8,2 28 15 - - SSW 0,0
17.10.2018 01:00:00 9,2 8,2 28 15 - - SSW 0,0
17.10.2018 00:00:00 9,3 8,4 28 15 - - SSW 0,0
16.10.2018 23:00:00 9,3 8,2 26 14 - - S 0,0
16.10.2018 22:00:00 9,6 8,5 29 16 - - S 0,0
16.10.2018 21:00:00 9,3 8,6 24 13 - - SSW 0,0
16.10.2018 20:00:00 9,4 8,9 24 13 - - SSW 0,0
16.10.2018 19:00:00 10,3 9,2 28 15 46 25 SSW 0,0
16.10.2018 18:00:00 11,0 9,7 34 18 48 26 SSW 0,0
16.10.2018 17:00:00 10,7 10,3 31 17 52 28 SSW 0,0
16.10.2018 16:00:00 10,3 10,2 31 17 52 28 SSW 0,0
16.10.2018 15:00:00 10,9 9,4 35 19 57 31 SSW 0,0
16.10.2018 14:00:00 11,8 7,5 41 22 63 34 SSW 0,0
16.10.2018 13:00:00 12,0 8,2 37 20 59 32 S 0,0
16.10.2018 12:00:00 11,8 8,8 35 19 55 30 S 0,0
16.10.2018 11:00:00 11,4 9,2 31 17 - - S 0,0
16.10.2018 10:00:00 9,5 8,5 29 16 - - S 0,0
16.10.2018 09:00:00 8,6 7,9 24 13 - - S 0,0
16.10.2018 08:00:00 7,9 7,5 18 10 - - S 0,0
16.10.2018 07:00:00 7,4 6,6 13 7 - - SSE 0,0
16.10.2018 06:00:00 7,1 6,3 21 11 - - SSE 0,0
16.10.2018 05:00:00 5,7 4,3 13 7 - - ESE 0,0
16.10.2018 04:00:00 5,7 4,3 11 6 - - E 0,0
16.10.2018 03:00:00 5,5 4,5 11 6 - - SE 0,0
16.10.2018 02:00:00 5,4 4,1 16 9 - - SSE 0,0
16.10.2018 01:00:00 5,9 4,2 16 9 - - SSE 0,0
16.10.2018 00:00:00 5,8 3,7 11 6 - - SSE 0,0
15.10.2018 23:00:00 6,3 3,8 21 11 - - SSE 0,0
15.10.2018 22:00:00 5,9 3,2 18 10 - - SE 0,0
15.10.2018 21:00:00 6,5 3,4 16 9 - - SE 0,0
15.10.2018 20:00:00 8,3 0,8 9 5 - - ESE 0,0
15.10.2018 19:00:00 8,9 0,9 9 5 - - ESE 0,0
15.10.2018 18:00:00 9,7 2,8 5 3 - - SE 0,0
15.10.2018 17:00:00 11,2 3,1 5 3 - - S 0,0
15.10.2018 16:00:00 11,6 2,8 5 3 - - S 0,0
15.10.2018 15:00:00 11,8 2,0 5 3 - - S 0,0
15.10.2018 14:00:00 10,9 3,9 5 3 - - S 0,0
15.10.2018 13:00:00 10,6 4,9 11 6 - - WSW 0,0
15.10.2018 12:00:00 9,6 4,0 8 4 - - SW 0,0
15.10.2018 11:00:00 7,8 3,6 11 6 - - SSE 0,0
15.10.2018 10:00:00 5,9 1,3 8 4 - - SSE 0,0
15.10.2018 09:00:00 5,8 0,7 5 3 - - SSE 0,0
15.10.2018 08:00:00 4,9 0,7 9 5 - - SSE 0,0
15.10.2018 07:00:00 4,9 1,3 11 6 - - SE 0,0
15.10.2018 06:00:00 5,7 1,5 8 4 - - S 0,0
15.10.2018 05:00:00 4,8 2,1 9 5 - - SSE 0,0
15.10.2018 04:00:00 4,5 2,6 13 7 - - SSE 0,0
15.10.2018 03:00:00 4,7 3,1 11 6 - - SE 0,0
15.10.2018 02:00:00 4,9 2,9 8 4 - - SSE 0,0
15.10.2018 01:00:00 4,6 3,1 5 3 - - SSE 0,0
15.10.2018 00:00:00 5,3 4,0 5 3 - - S 0,0
14.10.2018 23:00:00 5,4 4,3 5 3 - - S 0,0
14.10.2018 22:00:00 5,1 3,7 9 5 - - SSE 0,0
14.10.2018 21:00:00 6,0 4,4 5 3 - - S 0,0
14.10.2018 20:00:00 6,6 4,5 9 5 - - WSW 0,0
14.10.2018 19:00:00 7,2 4,3 13 7 - - WSW 0,0
14.10.2018 18:00:00 8,6 4,3 8 4 - - WSW 0,0
14.10.2018 17:00:00 10,6 3,8 9 5 - - SW 0,0
14.10.2018 16:00:00 11,3 4,1 8 4 - - SW 0,0
14.10.2018 15:00:00 9,7 5,5 8 4 - - W 0,0
14.10.2018 14:00:00 11,3 7,3 11 6 - - SW 0,0
14.10.2018 13:00:00 8,7 7,6 11 6 - - WSW 0,0
14.10.2018 12:00:00 8,0 7,2 9 5 - - WSW 0,0
14.10.2018 11:00:00 7,3 7,0 5 3 - - S 0,0
14.10.2018 10:00:00 6,5 6,3 5 3 - - S 0,0
14.10.2018 09:00:00 6,4 6,4 9 5 - - WSW 0,0
14.10.2018 08:00:00 6,0 5,9 9 5 - - W 0,0
14.10.2018 07:00:00 6,0 5,8 13 7 - - WSW 0,0
14.10.2018 06:00:00 5,6 5,4 16 9 - - SW 0,0
14.10.2018 05:00:00 5,9 5,4 18 10 - - WSW 0,0
14.10.2018 04:00:00 6,8 6,3 24 13 - - W 0,0
14.10.2018 03:00:00 7,7 7,6 24 13 - - W 0,0
14.10.2018 02:00:00 7,9 7,3 24 13 - - W 0,0
14.10.2018 01:00:00 8,1 7,8 24 13 - - WSW 0,0
14.10.2018 00:00:00 8,2 7,8 26 14 46 25 WSW 0,0
13.10.2018 23:00:00 8,2 7,9 37 20 50 27 SW 0,0
13.10.2018 22:00:00 10,2 10,0 29 16 - - SSW 0,0
13.10.2018 21:00:00 11,2 10,8 28 15 - - SSW 0,2
13.10.2018 20:00:00 13,7 13,0 28 15 48 26 SSW 0,0

tt = Température de l'air
td = dewpoint
ff = Vitesse du vent
fx = gusts
dd = Direction du vent
rr = Quantités de précipitations

stations d'obs. à proximité